Fort Smith, Canada
Current Conditions -  °F | °C
As of 5:00 AM on Monday 20 Oct 2014 (Local Time) from CYSM Reporting Station
Few Clouds Few Clouds  
Wind Chill: 41°   Ceiling: Unl
Heat Index: 45°   Visibility: 15mi
Dew Point: 41°   Wind: 7mph
Humidity: 87%   Direction: 130°SE
Pressure: 29.52"   Gusts: NA
Location:  60.02°N, 111.89°W
Report Text: CYSM 201100Z 13006KT 15SM FEW080 07/05 A2952 RMK AC1 SLP007
Loading
Personal Weather Stations






























Interactive Weather Map
Tropical Storm Tracking
New forecast layout! Learn more

10-Day Weather Forecast

Advertisements
Track Severe Weather on mobile